Time;durP1;ratioP1;P1;durP2;ratioP2;P2;SDS_P1;SDS_P2;PMS_P1;PMS_P2;Temp;Humidity;BMP_temperature;BMP_pressure;BME280_temperature;BME280_humidity;BME280_pressure;Samples;Min_cycle;Max_cycle;Signal;HPM_P1;HPM_P2
2023/05/27 00:00:47;;;;;;;17.83;6.87;;;;;;;;;;5012253;28;20984;-65
2023/05/27 00:03:13;;;;;;;19.03;7.20;;;;;;;;;;4995076;28;20434;-64
2023/05/27 00:05:40;;;;;;;10.60;5.90;;;;;;;;;;5012452;28;20505;-64
2023/05/27 00:08:07;;;;;;;14.00;6.60;;;;;;;;;;5012124;28;20518;-65
2023/05/27 00:10:33;;;;;;;14.33;6.23;;;;;;;;;;5012755;28;20450;-64
2023/05/27 00:13:00;;;;;;;14.07;6.83;;;;;;;;;;5011914;28;20530;-64
2023/05/27 00:15:27;;;;;;;16.20;6.17;;;;;;;;;;5009759;28;20421;-64
2023/05/27 00:17:54;;;;;;;15.07;6.20;;;;;;;;;;4992772;28;20688;-64
2023/05/27 00:20:21;;;;;;;17.23;6.53;;;;;;;;;;4992317;28;20471;-64
2023/05/27 00:22:49;;;;;;;12.17;6.10;;;;;;;;;;4992278;28;20522;-65
2023/05/27 00:25:20;;;;;;;18.93;7.30;;;;;;;;;;4992499;28;20475;-64
2023/05/27 00:27:47;;;;;;;13.97;6.57;;;;;;;;;;4975415;28;20546;-64
2023/05/27 00:30:15;;;;;;;15.17;6.63;;;;;;;;;;4992424;28;20795;-64
2023/05/27 00:32:42;;;;;;;18.13;7.07;;;;;;;;;;4992599;28;20433;-65
2023/05/27 00:35:09;;;;;;;15.00;7.07;;;;;;;;;;4992217;28;20440;-65
2023/05/27 00:37:36;;;;;;;16.23;7.13;;;;;;;;;;4974938;28;20489;-64
2023/05/27 00:40:04;;;;;;;19.47;7.80;;;;;;;;;;4974648;28;20472;-65
2023/05/27 00:42:31;;;;;;;16.93;7.13;;;;;;;;;;4992197;28;20446;-65
2023/05/27 00:44:59;;;;;;;17.50;7.33;;;;;;;;;;4992045;28;20542;-64
2023/05/27 00:47:27;;;;;;;24.50;7.50;;;;;;;;;;4992110;28;20441;-64
2023/05/27 00:49:55;;;;;;;23.37;7.40;;;;;;;;;;4991913;28;20411;-64
2023/05/27 00:52:22;;;;;;;14.70;7.33;;;;;;;;;;4974522;28;20527;-64
2023/05/27 00:54:48;;;;;;;16.60;7.10;;;;;;;;;;4991728;28;20443;-64
2023/05/27 00:57:15;;;;;;;14.30;6.60;;;;;;;;;;4973988;28;20439;-64
2023/05/27 00:59:43;;;;;;;15.40;6.93;;;;;;;;;;4973975;28;20440;-64
2023/05/27 01:02:10;;;;;;;12.77;6.53;;;;;;;;;;4991587;28;20415;-64
2023/05/27 01:04:37;;;;;;;13.33;6.80;;;;;;;;;;4974000;28;20538;-65
2023/05/27 01:07:08;;;;;;;17.73;6.80;;;;;;;;;;4974249;28;20438;-64
2023/05/27 01:09:34;;;;;;;17.40;7.03;;;;;;;;;;4991917;28;20432;-64
2023/05/27 01:12:11;;;;;;;18.37;7.10;;;;;;;;;;4974025;28;20441;-64
2023/05/27 01:14:39;;;;;;;17.77;6.70;;;;;;;;;;4974008;28;20443;-65
2023/05/27 01:17:06;;;;;;;16.70;6.47;;;;;;;;;;4972948;28;20483;-64
2023/05/27 01:19:34;;;;;;;16.97;6.97;;;;;;;;;;4993664;28;20514;-64
2023/05/27 01:22:01;;;;;;;16.23;7.03;;;;;;;;;;5011020;28;20419;-64
2023/05/27 01:24:28;;;;;;;22.67;8.47;;;;;;;;;;4977113;28;20454;-64
2023/05/27 01:27:00;;;;;;;13.93;6.87;;;;;;;;;;4993152;28;21475;-64
2023/05/27 01:29:28;;;;;;;13.00;7.40;;;;;;;;;;5010485;28;20937;-64
2023/05/27 01:31:57;;;;;;;13.90;7.30;;;;;;;;;;4992976;28;20474;-64
2023/05/27 01:34:31;;;;;;;18.23;7.13;;;;;;;;;;4993166;28;20454;-64
2023/05/27 01:37:04;;;;;;;18.47;6.83;;;;;;;;;;4977632;28;20788;-64
2023/05/27 01:39:32;;;;;;;14.47;7.00;;;;;;;;;;5010815;28;20438;-64
2023/05/27 01:42:00;;;;;;;12.40;6.40;;;;;;;;;;4993199;28;20465;-64
2023/05/27 02:16:25;;;;;;;17.50;6.63;;;;;;;;;;4999374;28;20411;-65
2023/05/27 02:18:54;;;;;;;19.07;6.40;;;;;;;;;;4973505;28;20432;-64
2023/05/27 02:21:21;;;;;;;14.17;6.07;;;;;;;;;;4972935;28;20479;-64
2023/05/27 02:23:48;;;;;;;12.27;6.13;;;;;;;;;;4990847;28;20831;-65
2023/05/27 02:26:16;;;;;;;15.23;5.97;;;;;;;;;;4972827;28;21015;-65
2023/05/27 02:28:44;;;;;;;14.20;5.77;;;;;;;;;;4990229;28;20456;-64
2023/05/27 02:31:11;;;;;;;19.33;7.00;;;;;;;;;;4972714;28;20478;-64
2023/05/27 02:33:38;;;;;;;17.90;7.17;;;;;;;;;;4990329;28;20448;-64
2023/05/27 02:36:06;;;;;;;18.00;6.37;;;;;;;;;;4972827;28;21177;-64
2023/05/27 02:38:33;;;;;;;20.07;6.37;;;;;;;;;;4990208;28;20502;-64
2023/05/27 02:41:00;;;;;;;13.53;6.00;;;;;;;;;;4972794;28;20496;-64
2023/05/27 02:43:27;;;;;;;14.47;5.67;;;;;;;;;;4989971;28;20432;-64
2023/05/27 02:45:53;;;;;;;13.83;5.97;;;;;;;;;;4972698;28;20470;-64
2023/05/27 02:48:21;;;;;;;17.90;6.33;;;;;;;;;;4989904;28;20436;-64
2023/05/27 02:50:48;;;;;;;14.00;6.00;;;;;;;;;;4972678;28;20451;-64
2023/05/27 02:53:14;;;;;;;13.33;6.10;;;;;;;;;;4972363;28;20474;-64
2023/05/27 02:55:42;;;;;;;14.83;5.83;;;;;;;;;;4972499;28;20543;-64
2023/05/27 02:58:09;;;;;;;14.73;6.10;;;;;;;;;;4972385;28;20447;-64
2023/05/27 03:00:36;;;;;;;14.70;5.63;;;;;;;;;;4989965;28;20556;-63
2023/05/27 03:03:06;;;;;;;13.70;5.43;;;;;;;;;;4990085;28;20427;-64
2023/05/27 03:05:34;;;;;;;13.77;5.67;;;;;;;;;;4972538;28;20523;-64
2023/05/27 03:08:01;;;;;;;15.43;5.53;;;;;;;;;;4972714;28;20436;-64
2023/05/27 03:10:28;;;;;;;20.47;6.37;;;;;;;;;;4989746;28;20526;-64
2023/05/27 03:12:57;;;;;;;13.93;5.60;;;;;;;;;;4990089;28;20465;-64
2023/05/27 03:15:23;;;;;;;20.00;6.67;;;;;;;;;;4974265;28;20509;-64
2023/05/27 03:17:51;;;;;;;13.67;5.63;;;;;;;;;;4991651;28;20476;-64
2023/05/27 03:20:18;;;;;;;21.23;6.67;;;;;;;;;;4991665;28;20451;-64
2023/05/27 03:22:45;;;;;;;13.87;5.80;;;;;;;;;;4995170;28;20442;-64
2023/05/27 03:25:13;;;;;;;13.57;5.90;;;;;;;;;;4995455;28;20448;-64
2023/05/27 03:27:40;;;;;;;16.10;6.27;;;;;;;;;;4979282;28;20438;-64
2023/05/27 03:30:11;;;;;;;13.07;5.67;;;;;;;;;;4995622;28;20485;-64
2023/05/27 03:32:43;;;;;;;13.60;5.30;;;;;;;;;;4995439;28;20441;-64
2023/05/27 03:35:11;;;;;;;9.17;5.30;;;;;;;;;;4995326;28;20452;-64
2023/05/27 03:37:37;;;;;;;13.90;5.57;;;;;;;;;;5012935;28;20448;-64
2023/05/27 03:40:08;;;;;;;15.53;5.97;;;;;;;;;;4995333;28;20432;-64
2023/05/27 03:42:35;;;;;;;13.13;6.67;;;;;;;;;;4995355;28;20526;-64
2023/05/27 03:45:03;;;;;;;14.47;6.03;;;;;;;;;;4995818;28;20441;-64
2023/05/27 03:47:30;;;;;;;13.10;5.83;;;;;;;;;;4994937;28;20479;-65
2023/05/27 03:49:56;;;;;;;14.53;5.93;;;;;;;;;;5013032;28;20423;-64
2023/05/27 03:52:23;;;;;;;10.87;5.23;;;;;;;;;;5012976;28;20438;-64
2023/05/27 03:54:50;;;;;;;11.10;5.07;;;;;;;;;;4995240;28;20956;-64
2023/05/27 03:57:17;;;;;;;11.63;5.30;;;;;;;;;;5012419;28;20431;-65
2023/05/27 03:59:44;;;;;;;13.93;5.57;;;;;;;;;;4994983;28;20498;-65
2023/05/27 04:02:11;;;;;;;15.67;6.33;;;;;;;;;;5012568;28;20431;-64
2023/05/27 04:04:38;;;;;;;11.50;5.23;;;;;;;;;;5012185;28;20435;-64
2023/05/27 04:07:04;;;;;;;19.03;6.63;;;;;;;;;;4994876;28;20919;-64
2023/05/27 04:09:31;;;;;;;12.53;5.43;;;;;;;;;;5012662;28;20934;-64
2023/05/27 04:11:58;;;;;;;12.47;6.07;;;;;;;;;;4994947;28;20494;-64
2023/05/27 04:14:25;;;;;;;12.10;6.20;;;;;;;;;;4994470;28;20192;-64
2023/05/27 04:16:52;;;;;;;11.67;6.40;;;;;;;;;;4998349;28;20272;-64
2023/05/27 04:19:20;;;;;;;13.73;5.93;;;;;;;;;;4992561;28;20436;-65
2023/05/27 04:21:48;;;;;;;17.73;6.37;;;;;;;;;;4975160;28;20780;-64
2023/05/27 04:24:15;;;;;;;14.43;6.00;;;;;;;;;;4974926;28;20443;-64
2023/05/27 04:26:45;;;;;;;13.17;5.90;;;;;;;;;;4975234;28;20232;-64
2023/05/27 04:29:15;;;;;;;12.57;5.60;;;;;;;;;;4974762;28;20204;-65
2023/05/27 04:31:43;;;;;;;14.27;5.97;;;;;;;;;;4974928;28;20588;-64
2023/05/27 04:34:13;;;;;;;19.33;6.00;;;;;;;;;;4973542;28;20201;-64
2023/05/27 04:36:40;;;;;;;16.20;5.87;;;;;;;;;;4974834;28;20644;-64
2023/05/27 04:39:11;;;;;;;10.37;5.43;;;;;;;;;;4974677;28;20189;-64
2023/05/27 04:41:41;;;;;;;13.17;5.77;;;;;;;;;;4974983;28;20251;-64
2023/05/27 04:44:13;;;;;;;11.60;5.90;;;;;;;;;;4974798;28;20296;-64
2023/05/27 04:46:43;;;;;;;16.67;6.83;;;;;;;;;;4974466;28;20228;-64
2023/05/27 04:49:10;;;;;;;14.07;6.40;;;;;;;;;;4974428;28;20292;-65
2023/05/27 04:51:37;;;;;;;14.23;6.80;;;;;;;;;;4974687;28;20193;-64
2023/05/27 04:54:05;;;;;;;18.97;6.53;;;;;;;;;;4984109;28;20188;-64
2023/05/27 04:56:35;;;;;;;13.33;5.97;;;;;;;;;;4974675;28;20197;-64
2023/05/27 04:59:02;;;;;;;11.00;6.50;;;;;;;;;;4974531;28;20193;-64
2023/05/27 05:01:48;;;;;;;16.63;7.03;;;;;;;;;;4974337;28;20196;-63
2023/05/27 05:04:26;;;;;;;15.37;6.80;;;;;;;;;;4973822;28;20578;-64
2023/05/27 05:06:57;;;;;;;16.20;6.67;;;;;;;;;;4974222;28;20612;-64
2023/05/27 05:09:25;;;;;;;18.17;6.70;;;;;;;;;;4974115;28;20283;-64
2023/05/27 05:11:52;;;;;;;12.07;6.00;;;;;;;;;;4974289;28;20283;-64
2023/05/27 05:14:19;;;;;;;16.90;6.30;;;;;;;;;;4974035;28;20251;-64
2023/05/27 05:16:50;;;;;;;13.70;6.20;;;;;;;;;;4986636;28;20238;-64
2023/05/27 05:19:17;;;;;;;15.97;6.93;;;;;;;;;;5010753;28;20675;-64
2023/05/27 05:21:45;;;;;;;15.17;6.97;;;;;;;;;;4993443;28;20201;-63
2023/05/27 05:24:13;;;;;;;212.67;95.37;;;;;;;;;;4993356;28;20224;-64
2023/05/27 05:26:44;;;;;;;24.13;10.57;;;;;;;;;;4993556;28;20556;-63
2023/05/27 05:29:10;;;;;;;16.23;7.03;;;;;;;;;;5010771;28;20188;-64
2023/05/27 05:31:37;;;;;;;14.27;7.07;;;;;;;;;;4993230;28;20532;-64
2023/05/27 05:34:05;;;;;;;16.83;6.90;;;;;;;;;;5002585;28;20231;-63
2023/05/27 05:36:34;;;;;;;15.90;6.60;;;;;;;;;;5010743;28;20192;-63
2023/05/27 05:39:05;;;;;;;15.30;6.57;;;;;;;;;;4993031;28;20285;-65
2023/05/27 05:41:34;;;;;;;16.80;6.90;;;;;;;;;;4993336;28;20207;-64
2023/05/27 05:44:02;;;;;;;19.17;6.60;;;;;;;;;;4992373;28;20672;-64
2023/05/27 05:46:29;;;;;;;16.67;6.00;;;;;;;;;;5010707;28;20228;-64
2023/05/27 05:48:56;;;;;;;13.03;5.67;;;;;;;;;;4992877;28;20685;-64
2023/05/27 05:51:37;;;;;;;14.87;4.90;;;;;;;;;;5010702;28;20568;-64
2023/05/27 05:54:04;;;;;;;14.70;4.47;;;;;;;;;;4984906;28;20203;-64
2023/05/27 05:56:33;;;;;;;11.43;5.30;;;;;;;;;;4977308;28;20233;-64
2023/05/27 05:59:00;;;;;;;12.83;5.27;;;;;;;;;;4992509;28;20291;-64
2023/05/27 06:01:30;;;;;;;18.37;5.20;;;;;;;;;;4992642;28;20200;-64
2023/05/27 06:03:59;;;;;;;14.60;4.13;;;;;;;;;;4992547;28;20200;-64
2023/05/27 06:06:31;;;;;;;13.03;4.90;;;;;;;;;;4992608;28;20304;-64
2023/05/27 06:09:15;;;;;;;11.27;3.93;;;;;;;;;;4992367;28;20196;-64
2023/05/27 06:11:42;;;;;;;14.27;4.23;;;;;;;;;;4992638;28;20737;-64
2023/05/27 06:14:09;;;;;;;14.97;4.53;;;;;;;;;;4992386;28;20188;-64
2023/05/27 06:16:37;;;;;;;10.90;3.87;;;;;;;;;;4980739;28;20193;-64
2023/05/27 06:19:04;;;;;;;12.77;4.50;;;;;;;;;;4972782;28;20220;-64
2023/05/27 06:21:32;;;;;;;14.20;4.00;;;;;;;;;;4990393;28;20189;-65
2023/05/27 06:24:19;;;;;;;8.97;2.80;;;;;;;;;;4963225;28;20211;-64
2023/05/27 06:26:54;;;;;;;4.70;1.80;;;;;;;;;;4972848;28;20230;-64
2023/05/27 06:29:21;;;;;;;4.87;1.80;;;;;;;;;;4972730;28;20200;-64
2023/05/27 06:31:48;;;;;;;5.73;1.90;;;;;;;;;;4990170;28;20192;-65
2023/05/27 06:34:18;;;;;;;5.83;2.03;;;;;;;;;;4972657;28;20604;-64
2023/05/27 06:36:48;;;;;;;6.17;1.93;;;;;;;;;;4972811;28;20196;-64
2023/05/27 06:39:16;;;;;;;4.60;1.90;;;;;;;;;;4972702;28;20512;-64
2023/05/27 06:41:42;;;;;;;4.50;1.50;;;;;;;;;;4973203;28;20208;-64
2023/05/27 06:44:27;;;;;;;7.13;1.87;;;;;;;;;;4990264;28;20204;-64
2023/05/27 06:47:09;;;;;;;4.87;1.87;;;;;;;;;;4972583;28;20228;-64
2023/05/27 06:49:35;;;;;;;3.97;1.80;;;;;;;;;;4972757;28;20200;-64
2023/05/27 06:52:04;;;;;;;6.83;1.50;;;;;;;;;;4964428;28;20619;-64
2023/05/27 06:54:44;;;;;;;3.73;1.70;;;;;;;;;;4972519;28;20227;-65
2023/05/27 06:57:30;;;;;;;4.33;1.57;;;;;;;;;;4991585;28;20227;-64
2023/05/27 07:00:08;;;;;;;5.57;1.80;;;;;;;;;;4976277;28;20235;-64
2023/05/27 07:02:44;;;;;;;3.50;1.83;;;;;;;;;;4976594;28;20204;-64
2023/05/27 07:05:11;;;;;;;4.77;1.77;;;;;;;;;;4976332;28;20196;-64
2023/05/27 07:07:38;;;;;;;9.00;1.80;;;;;;;;;;4993967;28;20244;-64
2023/05/27 07:10:05;;;;;;;4.47;1.50;;;;;;;;;;4976286;28;20196;-64
2023/05/27 07:12:34;;;;;;;3.53;1.50;;;;;;;;;;4976286;28;20291;-64
2023/05/27 07:15:19;;;;;;;3.33;1.50;;;;;;;;;;4977219;28;20566;-64
2023/05/27 07:17:46;;;;;;;3.73;1.30;;;;;;;;;;4995856;28;20234;-64
2023/05/27 07:20:13;;;;;;;4.10;1.43;;;;;;;;;;4995591;28;20208;-64
2023/05/27 07:22:41;;;;;;;5.17;1.63;;;;;;;;;;4995640;28;20192;-63
2023/05/27 07:25:09;;;;;;;2.97;1.30;;;;;;;;;;4995382;28;20667;-64
2023/05/27 07:27:36;;;;;;;2.70;1.20;;;;;;;;;;4995455;28;20216;-64
2023/05/27 07:30:04;;;;;;;5.67;1.20;;;;;;;;;;4995607;28;20223;-64
2023/05/27 07:32:38;;;;;;;3.03;1.20;;;;;;;;;;4995702;28;20188;-63
2023/05/27 07:35:06;;;;;;;3.33;1.37;;;;;;;;;;4987551;28;20571;-64
2023/05/27 07:37:32;;;;;;;3.83;1.27;;;;;;;;;;4995540;28;20192;-63
2023/05/27 07:39:59;;;;;;;4.20;1.57;;;;;;;;;;4995250;28;20232;-64
2023/05/27 07:42:29;;;;;;;5.03;1.53;;;;;;;;;;4995023;28;20291;-64
2023/05/27 07:44:59;;;;;;;3.57;1.40;;;;;;;;;;5012784;28;20211;-64
2023/05/27 07:47:27;;;;;;;2.83;1.30;;;;;;;;;;4995453;28;20339;-64
2023/05/27 07:49:54;;;;;;;3.80;1.60;;;;;;;;;;5012806;28;20566;-64
2023/05/27 07:52:41;;;;;;;2.70;1.27;;;;;;;;;;4995007;28;20295;-63
2023/05/27 07:55:21;;;;;;;3.90;1.40;;;;;;;;;;4995137;28;20725;-64
2023/05/27 07:57:48;;;;;;;5.63;1.50;;;;;;;;;;5012877;28;20635;-64
2023/05/27 08:00:15;;;;;;;4.57;1.40;;;;;;;;;;4995033;28;20185;-64
2023/05/27 08:02:53;;;;;;;4.00;1.50;;;;;;;;;;5012935;28;20199;-64
2023/05/27 08:05:39;;;;;;;2.23;1.10;;;;;;;;;;5012791;28;20218;-64
2023/05/27 08:08:18;;;;;;;4.13;1.10;;;;;;;;;;4994531;28;20227;-64
2023/05/27 08:11:05;;;;;;;2.67;1.10;;;;;;;;;;4991245;28;20224;-64
2023/05/27 08:14:01;;;;;;;2.70;1.40;;;;;;;;;;4999125;28;20215;-64
2023/05/27 08:16:48;;;;;;;3.87;1.13;;;;;;;;;;4991518;28;20221;-65
2023/05/27 08:19:28;;;;;;;4.57;1.10;;;;;;;;;;4975496;28;20202;-63
2023/05/27 08:22:01;;;;;;;2.80;1.20;;;;;;;;;;4975076;28;20197;-64
2023/05/27 08:24:49;;;;;;;3.73;1.30;;;;;;;;;;4992463;28;20215;-64
2023/05/27 08:27:42;;;;;;;3.10;1.30;;;;;;;;;;4974782;28;20656;-64
2023/05/27 08:30:14;;;;;;;3.17;1.40;;;;;;;;;;4975262;28;20486;-64
2023/05/27 08:32:48;;;;;;;2.90;1.10;;;;;;;;;;4974759;28;20683;-64
2023/05/27 08:35:18;;;;;;;4.13;1.10;;;;;;;;;;4992580;28;20668;-64
2023/05/27 08:37:45;;;;;;;2.93;1.20;;;;;;;;;;4992212;28;20271;-64
2023/05/27 08:40:16;;;;;;;3.23;1.20;;;;;;;;;;4974832;28;20211;-63
2023/05/27 08:42:48;;;;;;;2.73;1.20;;;;;;;;;;4974460;28;20734;-64
2023/05/27 08:45:16;;;;;;;3.73;1.10;;;;;;;;;;4974669;28;20220;-64
2023/05/27 08:47:43;;;;;;;3.00;1.10;;;;;;;;;;4974578;28;20221;-65
2023/05/27 08:50:16;;;;;;;2.50;1.00;;;;;;;;;;4974647;28;20585;-64
2023/05/27 08:52:49;;;;;;;1.77;0.97;;;;;;;;;;4992068;28;20560;-64
2023/05/27 08:55:17;;;;;;;1.87;0.80;;;;;;;;;;4974549;28;20283;-63
2023/05/27 08:57:44;;;;;;;3.53;1.20;;;;;;;;;;4958262;28;20232;-64
2023/05/27 09:00:13;;;;;;;3.93;1.00;;;;;;;;;;4974629;28;20221;-63
2023/05/27 09:02:41;;;;;;;2.27;0.80;;;;;;;;;;4974291;28;20201;-64
2023/05/27 09:05:09;;;;;;;3.30;0.83;;;;;;;;;;4974468;28;20188;-63
2023/05/27 09:07:37;;;;;;;4.13;1.33;;;;;;;;;;4991877;28;20260;-63
2023/05/27 09:10:04;;;;;;;1.70;1.00;;;;;;;;;;4983543;28;20185;-63
2023/05/27 09:12:31;;;;;;;3.03;0.93;;;;;;;;;;4991633;28;20196;-63
2023/05/27 09:14:58;;;;;;;2.60;1.00;;;;;;;;;;4991787;28;20223;-64
2023/05/27 09:17:24;;;;;;;2.57;1.10;;;;;;;;;;5009179;28;20254;-63
2023/05/27 09:19:51;;;;;;;4.47;0.97;;;;;;;;;;5010360;28;20199;-63
2023/05/27 09:22:22;;;;;;;8.93;1.20;;;;;;;;;;4993431;28;20724;-63
2023/05/27 09:24:49;;;;;;;2.00;0.90;;;;;;;;;;5010877;28;20219;-64
2023/05/27 09:27:16;;;;;;;4.13;0.93;;;;;;;;;;5010667;28;20643;-63
2023/05/27 09:29:43;;;;;;;2.73;0.93;;;;;;;;;;5011044;28;20246;-63
2023/05/27 09:32:10;;;;;;;1.70;0.80;;;;;;;;;;4993185;28;20742;-63
2023/05/27 09:34:40;;;;;;;2.50;0.80;;;;;;;;;;5010809;28;20192;-63
2023/05/27 09:37:12;;;;;;;2.27;1.00;;;;;;;;;;5010799;28;20195;-64
2023/05/27 09:39:40;;;;;;;1.50;0.70;;;;;;;;;;5010604;28;20525;-64
2023/05/27 09:42:07;;;;;;;2.30;0.70;;;;;;;;;;5010458;28;20200;-63
2023/05/27 09:44:36;;;;;;;1.80;0.80;;;;;;;;;;5010868;28;20254;-63
2023/05/27 09:47:07;;;;;;;1.87;0.70;;;;;;;;;;5010448;28;20189;-63
2023/05/27 09:49:35;;;;;;;2.77;1.10;;;;;;;;;;5010806;28;20567;-63
2023/05/27 09:52:02;;;;;;;3.20;0.83;;;;;;;;;;4993169;28;20212;-63
2023/05/27 09:54:29;;;;;;;2.03;0.73;;;;;;;;;;4993229;28;20192;-63
2023/05/27 09:56:56;;;;;;;3.57;0.90;;;;;;;;;;5010320;28;20192;-63
2023/05/27 09:59:23;;;;;;;3.20;0.90;;;;;;;;;;4992845;28;20246;-64
2023/05/27 10:01:50;;;;;;;1.37;0.80;;;;;;;;;;5010458;28;20259;-64
2023/05/27 10:04:17;;;;;;;1.23;0.70;;;;;;;;;;5010170;28;20235;-64
2023/05/27 10:06:44;;;;;;;2.27;0.70;;;;;;;;;;4976341;28;20563;-63
2023/05/27 10:09:13;;;;;;;3.47;0.80;;;;;;;;;;4992875;28;20224;-63
2023/05/27 10:11:40;;;;;;;2.23;1.10;;;;;;;;;;5010109;28;20667;-64
2023/05/27 10:14:07;;;;;;;2.70;1.10;;;;;;;;;;5010166;28;20528;-63
2023/05/27 10:16:34;;;;;;;4.30;1.00;;;;;;;;;;4998576;28;20223;-65
2023/05/27 10:19:00;;;;;;;1.80;0.80;;;;;;;;;;4956827;28;20220;-64
2023/05/27 10:21:28;;;;;;;1.43;0.70;;;;;;;;;;4990368;28;20216;-63
2023/05/27 10:23:56;;;;;;;2.33;0.90;;;;;;;;;;4990764;28;20189;-63
2023/05/27 10:26:52;;;;;;;1.93;0.80;;;;;;;;;;4990364;28;20197;-64
2023/05/27 10:29:19;;;;;;;2.33;0.80;;;;;;;;;;4970493;28;20600;-63
2023/05/27 10:31:46;;;;;;;3.43;0.83;;;;;;;;;;4990263;28;20231;-63
2023/05/27 10:34:18;;;;;;;1.97;0.80;;;;;;;;;;4990642;28;20272;-63
2023/05/27 10:36:45;;;;;;;3.77;0.70;;;;;;;;;;4972648;28;20216;-64
2023/05/27 10:39:13;;;;;;;1.97;0.70;;;;;;;;;;4990224;28;20192;-63
2023/05/27 10:41:43;;;;;;;1.67;0.70;;;;;;;;;;4973039;28;20193;-63
2023/05/27 10:44:11;;;;;;;1.10;0.73;;;;;;;;;;4990051;28;20197;-63
2023/05/27 10:46:41;;;;;;;4.30;1.00;;;;;;;;;;4990077;28;20185;-63
2023/05/27 10:49:09;;;;;;;1.93;0.80;;;;;;;;;;4990002;28;20727;-63
2023/05/27 10:51:36;;;;;;;0.93;0.70;;;;;;;;;;4990183;28;20713;-64
2023/05/27 10:54:03;;;;;;;1.40;0.70;;;;;;;;;;4989968;28;20197;-63
2023/05/27 10:56:50;;;;;;;1.30;0.60;;;;;;;;;;4990363;28;20195;-63
2023/05/27 10:59:24;;;;;;;4.60;0.90;;;;;;;;;;4972895;28;20201;-63
2023/05/27 11:01:52;;;;;;;0.80;0.53;;;;;;;;;;4990116;28;20615;-63
2023/05/27 11:04:19;;;;;;;0.70;0.70;;;;;;;;;;4972414;28;20714;-64
2023/05/27 11:06:59;;;;;;;1.80;0.50;;;;;;;;;;4989809;28;20204;-65
2023/05/27 11:09:46;;;;;;;0.60;0.60;;;;;;;;;;4989792;28;20319;-65
2023/05/27 11:12:16;;;;;;;3.60;0.73;;;;;;;;;;4989880;28;20446;-62
2023/05/27 11:14:50;;;;;;;2.30;0.70;;;;;;;;;;4989843;28;20552;-62
2023/05/27 11:17:17;;;;;;;3.00;0.60;;;;;;;;;;5006477;28;20224;-63
2023/05/27 11:19:45;;;;;;;1.37;0.60;;;;;;;;;;5009849;28;20279;-63
2023/05/27 11:22:12;;;;;;;1.77;0.60;;;;;;;;;;5009412;28;20192;-63
2023/05/27 11:24:39;;;;;;;1.70;0.60;;;;;;;;;;5009652;28;20603;-63
2023/05/27 11:27:10;;;;;;;0.87;0.60;;;;;;;;;;5009293;28;20191;-63
2023/05/27 11:29:48;;;;;;;1.90;0.73;;;;;;;;;;5009576;28;20187;-63
2023/05/27 11:32:18;;;;;;;1.93;0.57;;;;;;;;;;5009509;28;20187;-63
2023/05/27 11:34:45;;;;;;;1.70;0.67;;;;;;;;;;5009373;28;20254;-63
2023/05/27 11:37:12;;;;;;;2.87;0.60;;;;;;;;;;5009350;28;20195;-63
2023/05/27 11:39:49;;;;;;;3.23;0.60;;;;;;;;;;5009119;28;20612;-64
2023/05/27 11:42:20;;;;;;;1.30;0.70;;;;;;;;;;4992505;28;20579;-64
2023/05/27 11:44:52;;;;;;;0.80;0.53;;;;;;;;;;5013035;28;20192;-63
2023/05/27 11:47:19;;;;;;;1.87;1.10;;;;;;;;;;5013083;28;20188;-63
2023/05/27 11:49:49;;;;;;;2.00;0.63;;;;;;;;;;5012777;28;20544;-63
2023/05/27 11:52:17;;;;;;;1.10;0.60;;;;;;;;;;5012872;28;20181;-63
2023/05/27 11:54:44;;;;;;;2.37;0.70;;;;;;;;;;5012545;28;20196;-64
2023/05/27 11:57:24;;;;;;;2.50;0.80;;;;;;;;;;5012516;28;20542;-64
2023/05/27 11:59:51;;;;;;;1.70;0.60;;;;;;;;;;5013037;28;20210;-63
2023/05/27 12:02:20;;;;;;;1.47;0.60;;;;;;;;;;5012678;28;20189;-63
2023/05/27 12:04:48;;;;;;;2.17;0.77;;;;;;;;;;5012531;28;20188;-63
2023/05/27 12:07:15;;;;;;;2.20;0.70;;;;;;;;;;5012606;28;20184;-64
2023/05/27 12:09:48;;;;;;;2.57;0.50;;;;;;;;;;5012584;28;20224;-63
2023/05/27 12:12:21;;;;;;;1.77;0.63;;;;;;;;;;5012356;28;20207;-63
2023/05/27 12:14:48;;;;;;;0.87;0.50;;;;;;;;;;5012436;28;20180;-63
2023/05/27 12:17:15;;;;;;;1.27;0.70;;;;;;;;;;4995350;28;20220;-63
2023/05/27 12:19:42;;;;;;;3.57;0.70;;;;;;;;;;4992632;28;20229;-64
2023/05/27 12:22:09;;;;;;;1.50;0.70;;;;;;;;;;4992656;28;20667;-63
2023/05/27 12:24:36;;;;;;;1.17;0.60;;;;;;;;;;4992479;28;20668;-63
2023/05/27 12:27:03;;;;;;;1.07;0.90;;;;;;;;;;4992600;28;20192;-63
2023/05/27 12:29:30;;;;;;;1.40;0.70;;;;;;;;;;4992173;28;20267;-63
2023/05/27 12:31:57;;;;;;;1.80;0.80;;;;;;;;;;4992762;28;20181;-63
2023/05/27 12:34:24;;;;;;;1.23;0.70;;;;;;;;;;4992403;28;20181;-64
2023/05/27 12:36:50;;;;;;;1.50;0.63;;;;;;;;;;4992469;28;20189;-63
2023/05/27 12:39:17;;;;;;;2.40;0.87;;;;;;;;;;4992388;28;20730;-65
2023/05/27 12:41:44;;;;;;;0.77;0.60;;;;;;;;;;4992522;28;20648;-63
2023/05/27 12:44:11;;;;;;;1.73;0.70;;;;;;;;;;4974472;28;20616;-63
2023/05/27 12:46:38;;;;;;;1.50;0.60;;;;;;;;;;4992355;28;20217;-63
2023/05/27 12:49:05;;;;;;;1.97;0.70;;;;;;;;;;4984248;28;20410;-63
2023/05/27 12:51:32;;;;;;;1.77;0.60;;;;;;;;;;4974892;28;20188;-63
2023/05/27 12:53:59;;;;;;;1.00;0.60;;;;;;;;;;4973714;28;20204;-63
2023/05/27 12:56:27;;;;;;;4.87;0.60;;;;;;;;;;4992061;28;20227;-63
2023/05/27 12:58:54;;;;;;;1.20;0.63;;;;;;;;;;4991811;28;20467;-63
2023/05/27 13:01:20;;;;;;;1.03;0.70;;;;;;;;;;4991815;28;20192;-63
2023/05/27 13:03:47;;;;;;;2.23;0.77;;;;;;;;;;4991870;28;20408;-63
2023/05/27 13:06:14;;;;;;;4.07;1.03;;;;;;;;;;4992005;28;20851;-63
2023/05/27 13:08:41;;;;;;;1.43;0.80;;;;;;;;;;4991963;28;20536;-63
2023/05/27 13:11:07;;;;;;;1.37;0.70;;;;;;;;;;4991674;28;20205;-63
2023/05/27 13:13:34;;;;;;;2.03;0.70;;;;;;;;;;4991732;28;20227;-63
2023/05/27 13:16:01;;;;;;;4.00;0.80;;;;;;;;;;4998219;28;20554;-63
2023/05/27 13:18:29;;;;;;;2.13;0.60;;;;;;;;;;5010711;28;20222;-62
2023/05/27 13:20:56;;;;;;;5.23;0.97;;;;;;;;;;5011394;28;20195;-63
2023/05/27 13:23:23;;;;;;;2.77;0.80;;;;;;;;;;5011039;28;20602;-63
2023/05/27 13:25:50;;;;;;;2.10;0.73;;;;;;;;;;5010709;28;20295;-63
2023/05/27 13:28:17;;;;;;;2.20;0.70;;;;;;;;;;5010856;28;20235;-63
2023/05/27 13:30:44;;;;;;;2.10;0.77;;;;;;;;;;5011020;28;20230;-64
2023/05/27 13:33:11;;;;;;;2.43;0.80;;;;;;;;;;5010930;28;20184;-66
2023/05/27 13:35:38;;;;;;;1.57;0.80;;;;;;;;;;5011074;28;20693;-63
2023/05/27 13:38:06;;;;;;;1.07;0.60;;;;;;;;;;5011215;28;20207;-63
2023/05/27 13:40:32;;;;;;;2.40;0.70;;;;;;;;;;5010815;28;20556;-63
2023/05/27 13:42:59;;;;;;;0.90;0.70;;;;;;;;;;5010653;28;20612;-63
2023/05/27 13:45:26;;;;;;;1.00;0.60;;;;;;;;;;5010672;28;20196;-64
2023/05/27 13:47:53;;;;;;;1.77;0.60;;;;;;;;;;5010824;28;20196;-63
2023/05/27 13:50:20;;;;;;;0.90;0.63;;;;;;;;;;5010455;28;20219;-64
2023/05/27 13:52:47;;;;;;;2.37;0.70;;;;;;;;;;5010611;28;20193;-63
2023/05/27 13:55:14;;;;;;;6.00;0.90;;;;;;;;;;5010338;28;20602;-64
2023/05/27 13:57:43;;;;;;;2.50;0.67;;;;;;;;;;5010266;28;20226;-64
2023/05/27 14:00:10;;;;;;;1.97;0.70;;;;;;;;;;5010278;28;20674;-64
2023/05/27 14:02:36;;;;;;;0.97;0.70;;;;;;;;;;5010773;28;20192;-63
2023/05/27 14:05:03;;;;;;;2.97;0.80;;;;;;;;;;5009957;28;20548;-63
2023/05/27 14:07:30;;;;;;;2.70;0.80;;;;;;;;;;5010204;28;20615;-63
2023/05/27 14:09:57;;;;;;;1.43;0.80;;;;;;;;;;5010220;28;20294;-63
2023/05/27 14:12:25;;;;;;;1.50;0.73;;;;;;;;;;5010087;28;20246;-64
2023/05/27 14:14:52;;;;;;;2.97;0.93;;;;;;;;;;5010374;28;20540;-64
2023/05/27 14:17:19;;;;;;;1.53;0.60;;;;;;;;;;4992680;28;20224;-64
2023/05/27 14:19:45;;;;;;;2.50;0.63;;;;;;;;;;4990533;28;20200;-63
2023/05/27 14:22:13;;;;;;;0.80;0.60;;;;;;;;;;4990701;28;20288;-63
2023/05/27 14:24:41;;;;;;;1.90;0.80;;;;;;;;;;4990625;28;20199;-63
2023/05/27 14:27:07;;;;;;;1.13;0.83;;;;;;;;;;4990140;28;20197;-64
2023/05/27 14:29:34;;;;;;;5.27;0.90;;;;;;;;;;4990336;28;20216;-64
2023/05/27 14:32:01;;;;;;;1.13;0.60;;;;;;;;;;4990469;28;20193;-63
2023/05/27 14:34:28;;;;;;;1.60;0.60;;;;;;;;;;4972510;28;20193;-63
2023/05/27 14:36:55;;;;;;;2.20;0.70;;;;;;;;;;4990230;28;20188;-63
2023/05/27 14:39:21;;;;;;;1.27;0.70;;;;;;;;;;4990500;28;20682;-63
2023/05/27 14:41:48;;;;;;;2.30;0.70;;;;;;;;;;4990240;28;20247;-64
2023/05/27 14:44:15;;;;;;;1.47;0.67;;;;;;;;;;4972857;28;20192;-63
2023/05/27 14:46:41;;;;;;;4.63;0.83;;;;;;;;;;4972960;28;20195;-64
2023/05/27 14:49:08;;;;;;;2.20;0.60;;;;;;;;;;4989962;28;20694;-64
2023/05/27 14:51:36;;;;;;;1.97;0.63;;;;;;;;;;4990177;28;20247;-64
2023/05/27 14:54:02;;;;;;;11.93;8.50;;;;;;;;;;4990289;28;20604;-66
2023/05/27 14:56:32;;;;;;;1.50;1.00;;;;;;;;;;4990130;28;20590;-64
2023/05/27 14:58:59;;;;;;;1.97;0.90;;;;;;;;;;4972966;28;20259;-63
2023/05/27 15:01:25;;;;;;;1.40;0.87;;;;;;;;;;4989826;28;20729;-64
2023/05/27 15:03:52;;;;;;;1.10;0.80;;;;;;;;;;4990192;28;20667;-64
2023/05/27 15:06:19;;;;;;;4.10;1.30;;;;;;;;;;4989845;28;20197;-64
2023/05/27 15:08:46;;;;;;;0.93;0.93;;;;;;;;;;4990028;28;20670;-64
2023/05/27 15:11:13;;;;;;;1.77;1.23;;;;;;;;;;4989825;28;20680;-64
2023/05/27 15:13:39;;;;;;;1.53;0.97;;;;;;;;;;4989990;28;20711;-63
2023/05/27 15:16:06;;;;;;;2.67;0.83;;;;;;;;;;4997277;28;20198;-64
2023/05/27 15:18:33;;;;;;;1.93;0.67;;;;;;;;;;5012494;28;20224;-64
2023/05/27 15:21:00;;;;;;;2.60;0.60;;;;;;;;;;5013244;28;20725;-64